createdAt,value
2022-09-23T00:02:26.773Z,87.87
2022-09-23T00:05:58.787Z,87.75
2022-09-23T00:09:24.489Z,87.66
2022-09-23T00:13:00.765Z,87.48
2022-09-23T00:16:38.872Z,87.26
2022-09-23T00:20:15.813Z,87.19
2022-09-23T00:24:09.951Z,87.21
2022-09-23T00:27:30.968Z,87.23
2022-09-23T00:31:27.257Z,87.69
2022-09-23T00:34:48.023Z,88.06
2022-09-23T00:38:24.673Z,88.44
2022-09-23T00:42:01.536Z,88.48
2022-09-23T00:45:39.660Z,88.04
2022-09-23T00:49:30.277Z,87.52
2022-09-23T00:52:54.230Z,87.13
2022-09-23T00:56:32.161Z,87.42
2022-09-23T01:00:24.406Z,87.35
2022-09-23T01:03:46.545Z,87.09
2022-09-23T01:07:21.885Z,86.95
2022-09-23T01:11:45.718Z,86.83
2022-09-23T01:15:33.405Z,86.69
2022-09-23T01:19:18.789Z,87.00
2022-09-23T01:22:54.441Z,87.26
2022-09-23T01:27:09.528Z,87.42
2022-09-23T01:30:52.909Z,87.78
2022-09-23T01:34:26.522Z,87.75
2022-09-23T01:38:34.195Z,87.85
2022-09-23T01:42:17.722Z,87.53
2022-09-23T01:45:54.497Z,87.62
2022-09-23T01:49:29.050Z,87.52
2022-09-23T01:52:57.085Z,87.15
2022-09-23T01:57:01.855Z,87.36
2022-09-23T02:00:44.038Z,87.64
2022-09-23T02:04:17.543Z,87.99
2022-09-23T02:07:53.849Z,88.36
2022-09-23T02:11:19.589Z,88.62
2022-09-23T02:15:07.188Z,88.95
2022-09-23T02:18:42.094Z,88.81
2022-09-23T02:22:15.547Z,88.56
2022-09-23T02:25:57.484Z,88.35
2022-09-23T02:29:23.684Z,88.37
2022-09-23T02:33:34.477Z,88.21
2022-09-23T02:37:09.682Z,88.47
2022-09-23T02:40:38.875Z,88.60
2022-09-23T02:44:28.319Z,88.81
2022-09-23T02:48:16.258Z,88.69
2022-09-23T02:51:38.275Z,88.64
2022-09-23T02:55:17.988Z,88.91
2022-09-23T02:58:53.574Z,89.18
2022-09-23T03:02:52.637Z,89.72
2022-09-23T03:06:29.535Z,89.28
2022-09-23T03:10:09.726Z,89.78
2022-09-23T03:14:17.534Z,89.98
2022-09-23T03:18:06.415Z,90.15
2022-09-23T03:21:37.128Z,90.42
2022-09-23T03:25:26.362Z,90.17
2022-09-23T03:28:48.580Z,90.42
2022-09-23T03:32:28.014Z,90.31
2022-09-23T03:36:26.952Z,90.60
2022-09-23T03:39:54.228Z,90.71
2022-09-23T03:43:25.512Z,90.64
2022-09-23T03:47:03.066Z,90.48
2022-09-23T03:50:39.304Z,90.74
2022-09-23T03:54:15.798Z,90.76
2022-09-23T03:57:52.467Z,91.12
2022-09-23T04:01:29.793Z,90.83
2022-09-23T04:05:06.972Z,90.92
2022-09-23T04:08:42.906Z,90.48
2022-09-23T04:12:19.575Z,91.24
2022-09-23T04:15:56.574Z,90.88
2022-09-23T04:19:33.106Z,91.06
2022-09-23T04:23:10.052Z,91.10
2022-09-23T04:26:51.364Z,91.09
2022-09-23T04:30:23.567Z,91.04
2022-09-23T04:34:01.011Z,91.09
2022-09-23T04:37:55.966Z,90.94
2022-09-23T04:41:34.735Z,90.76
2022-09-23T04:44:55.126Z,90.57
2022-09-23T04:48:32.286Z,90.67
2022-09-23T04:52:08.699Z,90.66
2022-09-23T04:56:08.756Z,91.15
2022-09-23T04:59:30.240Z,90.81
2022-09-23T05:03:07.201Z,91.00
2022-09-23T05:06:45.398Z,91.18
2022-09-23T05:10:19.495Z,90.95
2022-09-23T05:13:56.356Z,90.76
2022-09-23T05:17:51.958Z,90.95
2022-09-23T05:21:31.658Z,90.73
2022-09-23T05:25:10.778Z,90.76
2022-09-23T05:28:50.636Z,91.38
2022-09-23T05:32:11.346Z,91.64
2022-09-23T05:36:07.606Z,91.50
2022-09-23T05:39:27.816Z,91.61
2022-09-23T05:43:04.599Z,91.94
2022-09-23T05:46:41.299Z,91.84
2022-09-23T05:50:37.168Z,91.82
2022-09-23T05:53:59.053Z,91.40
2022-09-23T05:57:35.007Z,91.34
2022-09-23T06:01:24.898Z,91.22
2022-09-23T06:05:07.297Z,91.25
2022-09-23T06:08:27.882Z,91.72
2022-09-23T06:12:06.515Z,91.85
2022-09-23T06:15:43.757Z,91.74
2022-09-23T06:19:18.191Z,91.61
2022-09-23T06:23:13.691Z,91.70
2022-09-23T06:26:53.005Z,91.85
2022-09-23T06:30:33.538Z,91.75
2022-09-23T06:34:06.086Z,91.68
2022-09-23T06:37:34.259Z,91.75
2022-09-23T06:41:12.184Z,91.89
2022-09-23T06:44:47.497Z,91.57
2022-09-23T06:48:27.079Z,91.46
2022-09-23T06:52:01.191Z,91.43
2022-09-23T06:56:01.942Z,91.46
2022-09-23T06:59:41.341Z,91.74
2022-09-23T07:03:05.974Z,91.71
2022-09-23T07:06:38.507Z,91.78
2022-09-23T07:10:34.612Z,91.63
2022-09-23T07:14:13.753Z,91.52
2022-09-23T07:17:35.076Z,91.47
2022-09-23T07:21:17.083Z,91.45
2022-09-23T07:24:48.041Z,91.49
2022-09-23T07:28:29.176Z,91.40
2022-09-23T07:32:22.156Z,91.29
2022-09-23T07:35:42.683Z,91.43
2022-09-23T07:39:19.718Z,91.45
2022-09-23T07:43:15.097Z,91.58
2022-09-23T07:46:37.204Z,91.59
2022-09-23T07:50:12.197Z,91.46
2022-09-23T07:53:51.279Z,91.47
2022-09-23T07:57:25.753Z,91.58
2022-09-23T08:01:05.505Z,91.54
2022-09-23T08:04:39.409Z,91.15
2022-09-23T08:08:17.365Z,91.03
2022-09-23T08:12:16.254Z,91.22
2022-09-23T08:15:37.080Z,91.18
2022-09-23T08:19:14.237Z,91.26
2022-09-23T08:22:51.378Z,91.39
2022-09-23T08:26:28.931Z,91.36
2022-09-23T08:30:23.069Z,91.14
2022-09-23T08:34:03.037Z,91.07
2022-09-23T08:37:23.573Z,91.16
2022-09-23T08:41:27.910Z,90.89
2022-09-23T08:44:59.762Z,90.80
2022-09-23T08:48:32.860Z,90.91
2022-09-23T08:52:19.910Z,90.92
2022-09-23T08:55:48.732Z,90.42
2022-09-23T08:59:37.979Z,90.53
2022-09-23T09:02:59.552Z,90.12
2022-09-23T09:06:53.459Z,89.41
2022-09-23T09:10:46.768Z,88.81
2022-09-23T09:14:27.399Z,88.72
2022-09-23T09:18:12.214Z,88.96
2022-09-23T09:21:42.536Z,86.54
2022-09-23T09:25:36.494Z,85.20
2022-09-23T09:29:30.842Z,84.05
2022-09-23T09:33:16.027Z,85.29
2022-09-23T09:36:50.105Z,85.14
2022-09-23T09:40:20.394Z,85.76
2022-09-23T09:43:56.421Z,84.00
2022-09-23T09:48:11.075Z,82.29
2022-09-23T09:51:32.530Z,81.63
2022-09-23T09:55:11.956Z,82.36
2022-09-23T09:58:51.786Z,82.13
2022-09-23T10:02:30.648Z,82.65
2022-09-23T10:05:59.802Z,79.25
2022-09-23T10:09:38.639Z,79.45
2022-09-23T10:13:16.280Z,79.85
2022-09-23T10:17:05.324Z,78.75
2022-09-23T10:20:36.317Z,77.53
2022-09-23T10:24:06.541Z,76.19
2022-09-23T10:27:40.620Z,78.55
2022-09-23T10:31:30.214Z,78.69
2022-09-23T10:35:09.619Z,76.36
2022-09-23T10:38:30.935Z,74.63
2022-09-23T10:43:02.558Z,74.23
2022-09-23T10:47:34.313Z,70.00
2022-09-23T10:50:59.480Z,63.20
2022-09-23T10:55:21.337Z,65.01
2022-09-23T10:58:48.478Z,68.57
2022-09-23T11:03:15.347Z,68.01
2022-09-23T11:07:20.738Z,70.11
2022-09-23T11:11:18.445Z,71.39
2022-09-23T11:14:54.541Z,72.04
2022-09-23T11:18:22.646Z,72.10
2022-09-23T11:22:36.798Z,70.20
2022-09-23T11:26:32.196Z,65.62
2022-09-23T11:30:19.359Z,62.96
2022-09-23T11:34:15.449Z,64.52
2022-09-23T11:38:00.530Z,67.06
2022-09-23T11:41:38.051Z,66.07
2022-09-23T11:45:07.035Z,62.96
2022-09-23T11:48:46.304Z,63.21
2022-09-23T11:52:47.466Z,61.15
2022-09-23T11:56:33.626Z,62.91
2022-09-23T12:00:26.075Z,61.75
2022-09-23T12:04:20.577Z,60.07
2022-09-23T12:07:57.850Z,60.22
2022-09-23T12:11:49.979Z,61.65
2022-09-23T12:15:26.416Z,61.17
2022-09-23T12:19:04.557Z,58.59
2022-09-23T12:23:09.140Z,60.05
2022-09-23T12:26:32.632Z,58.88
2022-09-23T12:30:30.060Z,57.25
2022-09-23T12:33:53.799Z,55.43
2022-09-23T12:37:38.941Z,56.60
2022-09-23T12:41:28.707Z,54.66
2022-09-23T12:44:50.732Z,54.95
2022-09-23T12:48:48.637Z,54.33
2022-09-23T12:52:12.163Z,53.59
2022-09-23T12:55:47.001Z,51.65
2022-09-23T12:59:50.825Z,50.96
2022-09-23T13:03:31.768Z,50.66
2022-09-23T13:07:16.418Z,48.72
2022-09-23T13:10:41.416Z,47.58
2022-09-23T13:14:33.842Z,48.39
2022-09-23T13:18:23.210Z,50.38
2022-09-23T13:22:08.241Z,49.92
2022-09-23T13:25:50.819Z,48.26
2022-09-23T13:29:25.850Z,48.45
2022-09-23T13:33:16.041Z,47.05
2022-09-23T13:36:55.574Z,48.13
2022-09-23T13:40:36.411Z,46.39
2022-09-23T13:43:59.582Z,44.03
2022-09-23T13:47:59.548Z,40.25
2022-09-23T13:51:39.136Z,37.77
2022-09-23T13:54:59.918Z,37.13
2022-09-23T13:58:36.678Z,37.89
2022-09-23T14:02:16.872Z,38.91
2022-09-23T14:06:14.038Z,41.31
2022-09-23T14:09:36.609Z,42.69
2022-09-23T14:13:41.567Z,43.78
2022-09-23T14:17:03.112Z,42.43
2022-09-23T14:20:50.293Z,40.77
2022-09-23T14:24:38.055Z,38.25
2022-09-23T14:28:00.678Z,37.77
2022-09-23T14:31:36.596Z,38.29
2022-09-23T14:35:22.344Z,36.24
2022-09-23T14:38:52.760Z,36.07
2022-09-23T14:42:27.580Z,33.90
2022-09-23T14:46:03.681Z,32.88
2022-09-23T14:50:07.713Z,34.24
2022-09-23T14:53:46.392Z,35.47
2022-09-23T14:57:29.340Z,37.59
2022-09-23T15:00:58.555Z,38.53
2022-09-23T15:04:45.383Z,38.77
2022-09-23T15:08:06.308Z,38.63
2022-09-23T15:12:06.299Z,39.40
2022-09-23T15:15:30.764Z,40.10
2022-09-23T15:19:04.040Z,41.81
2022-09-23T15:22:59.310Z,42.93
2022-09-23T15:26:40.698Z,44.57
2022-09-23T15:30:15.443Z,45.39
2022-09-23T15:33:57.675Z,46.00
2022-09-23T15:37:18.475Z,46.42
2022-09-23T15:40:55.647Z,46.99
2022-09-23T15:44:32.772Z,48.23
2022-09-23T15:48:13.986Z,50.10
2022-09-23T15:51:45.536Z,50.25
2022-09-23T15:55:41.295Z,50.86
2022-09-23T15:59:02.024Z,51.97
2022-09-23T16:02:57.676Z,52.41
2022-09-23T16:06:20.333Z,53.47
2022-09-23T16:09:58.674Z,54.38
2022-09-23T16:13:32.518Z,55.01
2022-09-23T16:17:13.990Z,55.30
2022-09-23T16:21:07.047Z,55.54
2022-09-23T16:24:28.444Z,55.99
2022-09-23T16:28:04.927Z,56.49
2022-09-23T16:32:00.453Z,56.82
2022-09-23T16:35:27.001Z,57.15
2022-09-23T16:39:17.760Z,57.56
2022-09-23T16:42:39.307Z,58.13
2022-09-23T16:46:17.425Z,58.50
2022-09-23T16:49:52.496Z,58.62
2022-09-23T16:53:49.048Z,59.19
2022-09-23T16:57:29.391Z,59.63
2022-09-23T17:01:15.415Z,59.93
2022-09-23T17:04:37.583Z,60.31
2022-09-23T17:08:33.633Z,60.58
2022-09-23T17:12:16.859Z,60.78
2022-09-23T17:15:41.525Z,60.98
2022-09-23T17:19:34.132Z,61.32
2022-09-23T17:22:55.332Z,61.87
2022-09-23T17:26:31.729Z,62.57
2022-09-23T17:30:09.361Z,63.39
2022-09-23T17:33:45.147Z,63.96
2022-09-23T17:37:40.752Z,64.12
2022-09-23T17:41:02.516Z,64.04
2022-09-23T17:44:58.761Z,64.23
2022-09-23T17:48:20.279Z,64.34
2022-09-23T17:51:57.023Z,64.50
2022-09-23T17:55:33.220Z,64.47
2022-09-23T17:59:29.019Z,64.55
2022-09-23T18:03:08.732Z,64.65
2022-09-23T18:06:31.906Z,64.75
2022-09-23T18:10:24.844Z,64.96
2022-09-23T18:13:52.553Z,65.09
2022-09-23T18:17:21.690Z,65.95
2022-09-23T18:21:03.257Z,66.57
2022-09-23T18:24:54.149Z,67.59
2022-09-23T18:28:14.577Z,67.92
2022-09-23T18:31:52.384Z,67.96
2022-09-23T18:35:28.633Z,67.83
2022-09-23T18:39:05.398Z,67.74
2022-09-23T18:42:41.909Z,67.54
2022-09-23T18:46:21.215Z,67.42
2022-09-23T18:50:33.129Z,67.52
2022-09-23T18:54:12.690Z,67.56
2022-09-23T18:57:33.547Z,67.50
2022-09-23T19:01:10.470Z,67.63
2022-09-23T19:04:47.781Z,68.22
2022-09-23T19:08:24.123Z,68.85
2022-09-23T19:12:03.482Z,69.23
2022-09-23T19:15:37.354Z,69.18
2022-09-23T19:19:33.037Z,69.20
2022-09-23T19:22:54.309Z,69.13
2022-09-23T19:26:37.740Z,69.09
2022-09-23T19:30:07.772Z,69.09
2022-09-23T19:33:51.558Z,68.95
2022-09-23T19:37:21.079Z,69.12
2022-09-23T19:41:16.254Z,69.13
2022-09-23T19:44:40.121Z,69.62
2022-09-23T19:48:13.988Z,70.44
2022-09-23T19:51:51.561Z,70.95
2022-09-23T19:55:28.602Z,70.97
2022-09-23T19:59:23.346Z,71.19
2022-09-23T20:03:02.845Z,71.35
2022-09-23T20:06:42.589Z,71.29
2022-09-23T20:10:03.233Z,71.77
2022-09-23T20:13:41.449Z,72.10
2022-09-23T20:17:19.186Z,72.34
2022-09-23T20:21:14.707Z,72.51
2022-09-23T20:24:35.581Z,72.35
2022-09-23T20:28:31.113Z,72.07
2022-09-23T20:31:51.354Z,72.38
2022-09-23T20:35:32.996Z,72.09
2022-09-23T20:39:10.127Z,72.20
2022-09-23T20:42:41.586Z,72.59
2022-09-23T20:46:18.539Z,73.27
2022-09-23T20:50:14.106Z,73.77
2022-09-23T20:53:53.342Z,73.77
2022-09-23T20:57:15.210Z,73.64
2022-09-23T21:01:10.740Z,73.63
2022-09-23T21:04:50.179Z,73.55
2022-09-23T21:08:12.553Z,73.48
2022-09-23T21:11:47.136Z,73.87
2022-09-23T21:15:24.134Z,74.48
2022-09-23T21:19:20.235Z,75.31
2022-09-23T21:22:40.808Z,75.82
2022-09-23T21:26:36.631Z,75.69
2022-09-23T21:29:58.981Z,75.43
2022-09-23T21:33:36.753Z,75.34
2022-09-23T21:37:11.638Z,74.91
2022-09-23T21:41:10.400Z,74.93
2022-09-23T21:44:31.442Z,74.87
2022-09-23T21:48:08.191Z,75.28
2022-09-23T21:51:44.836Z,75.87
2022-09-23T21:55:40.396Z,76.90
2022-09-23T21:59:20.010Z,76.83
2022-09-23T22:02:59.269Z,76.71
2022-09-23T22:06:22.997Z,76.74
2022-09-23T22:09:56.688Z,76.46
2022-09-23T22:13:34.928Z,76.25
2022-09-23T22:17:12.289Z,76.95
2022-09-23T22:20:47.818Z,77.46
2022-09-23T22:24:23.791Z,77.72
2022-09-23T22:28:19.387Z,77.54
2022-09-23T22:31:59.287Z,77.54
2022-09-23T22:35:20.640Z,77.14
2022-09-23T22:38:59.268Z,77.02
2022-09-23T22:42:34.814Z,77.38
2022-09-23T22:46:11.109Z,77.93
2022-09-23T22:50:08.464Z,78.21
2022-09-23T22:53:48.793Z,78.53
2022-09-23T22:57:10.106Z,78.31
2022-09-23T23:00:46.224Z,78.22
2022-09-23T23:04:23.422Z,78.21
2022-09-23T23:08:18.744Z,78.79
2022-09-23T23:11:58.443Z,79.21
2022-09-23T23:15:19.006Z,79.43
2022-09-23T23:19:16.211Z,79.50
2022-09-23T23:22:36.492Z,79.41
2022-09-23T23:26:33.494Z,79.21
2022-09-23T23:30:13.083Z,79.11
2022-09-23T23:33:53.467Z,79.42
2022-09-23T23:37:32.728Z,79.66
2022-09-23T23:40:53.757Z,80.06
2022-09-23T23:44:34.461Z,79.99
2022-09-23T23:48:28.097Z,79.83
2022-09-23T23:51:49.079Z,79.32
2022-09-23T23:55:44.924Z,79.19
2022-09-23T23:59:05.968Z,79.03
